TAF KPGV
KPGV 270520Z 2706/2806 31005KT P6SM SKC FM271900 28005KT P6SM FEW200 FM272100 25004KT P6SM FEW150 AMD LTD TO CLD VIS AND WIND=
METAR KPGV
WC KPGV
WS KPGV
WV KPGV